Airport View

Enter AWOS ICAO identifier for current METAR.

ex. KFNL

KBNW 011150Z AUTO 32013KT 10SM FEW048 BKN065 BKN080 09/04 A3010 RMK AO2

1 Oct 2020 11:53

Frequency: 120.925

Phone: 515-432-9042

Other Area AWOS: KAMW - KPRO - KEBS - KIKV

TAF KDSM 010520Z 0106/0206 27007KT P6SM SCT100 FM011600 32013G21KT P6SM BKN080 FM020100 33008KT P6SM FEW200